logo
Search for airport 
image banner adimage banner adimage banner ad
image banner ad

VTCO - Lamphun Airport

Located in , Thailand

ICAO - VTCO, IATA -

Data provided by Airmate  

General information

Coordinates: N18°32'49" E99°0'43"
Elevation is 925 feet MSL.
 
View others Airports in Lamphun Province

Operational data

Special qualification required
Current time UTC:
Current local time:
METAR: VTCC 232000Z VRB02KT 9999 SCT035 26/22 Q1004 NOSIG
TAF: TAF VTCC 231700Z 2318/2424 36005KT 9999 SCT035 BECMG 2400/2402 16005KT BECMG 2404/2406 22005KT TEMPO 2406/2412 28015G25KT 4000 TSRA FEW025CB BKN030 BECMG 2417/2419 36005KT
View NOTAMs / SUP AIP / TFR affecting this airport [VIEW]
Communications frequencies: [VIEW]

Runways:

RWY identifierQFULength (ft)Width (ft)SurfaceLDA (ft)
0129530GRAV
1929530GRAV

Airport contact information

Address: Thailand

Satellite view of VTCO